createdAt,value
2022-08-02T00:00:57.718Z,16.8
2022-08-02T00:02:00.369Z,16.8
2022-08-02T00:03:03.016Z,16.7
2022-08-02T00:04:05.925Z,16.7
2022-08-02T00:05:08.882Z,16.7
2022-08-02T00:06:11.008Z,16.7
2022-08-02T00:07:13.931Z,16.7
2022-08-02T00:08:17.141Z,16.7
2022-08-02T00:09:22.297Z,16.6
2022-08-02T00:10:25.146Z,16.6
2022-08-02T00:11:27.440Z,16.6
2022-08-02T00:12:30.850Z,16.6
2022-08-02T00:13:33.521Z,16.6
2022-08-02T00:14:36.723Z,16.5
2022-08-02T00:15:39.650Z,16.5
2022-08-02T00:16:41.786Z,16.5
2022-08-02T00:17:44.400Z,16.5
2022-08-02T00:18:51.062Z,16.5
2022-08-02T00:19:53.349Z,16.5
2022-08-02T00:20:56.247Z,16.4
2022-08-02T00:21:59.432Z,16.4
2022-08-02T00:23:02.359Z,16.4
2022-08-02T00:24:31.579Z,16.4
2022-08-02T00:25:34.141Z,16.4
2022-08-02T00:26:37.333Z,16.4
2022-08-02T00:27:39.958Z,16.3
2022-08-02T00:28:42.381Z,16.3
2022-08-02T00:29:54.336Z,16.3
2022-08-02T00:30:57.482Z,16.3
2022-08-02T00:32:00.410Z,16.3
2022-08-02T00:33:03.045Z,16.3
2022-08-02T00:34:37.979Z,16.3
2022-08-02T00:35:41.615Z,16.3
2022-08-02T00:36:44.527Z,16.2
2022-08-02T00:37:47.146Z,16.2
2022-08-02T00:38:50.403Z,16.2
2022-08-02T00:39:53.029Z,16.2
2022-08-02T00:40:58.846Z,16.2
2022-08-02T00:42:02.036Z,16.2
2022-08-02T00:43:04.890Z,16.1
2022-08-02T00:44:08.078Z,16.1
2022-08-02T00:45:13.185Z,16.1
2022-08-02T00:46:15.695Z,16.1
2022-08-02T00:47:20.275Z,16.1
2022-08-02T00:48:22.630Z,16
2022-08-02T00:49:25.408Z,16
2022-08-02T00:50:28.380Z,16
2022-08-02T00:51:31.010Z,16
2022-08-02T00:52:33.359Z,16
2022-08-02T00:53:35.972Z,16
2022-08-02T00:54:38.586Z,15.9
2022-08-02T00:55:42.051Z,15.9
2022-08-02T00:56:51.596Z,15.9
2022-08-02T00:57:54.258Z,15.9
2022-08-02T00:58:56.543Z,15.9
2022-08-02T00:59:59.400Z,15.9
2022-08-02T01:01:02.389Z,15.9
2022-08-02T01:02:04.643Z,15.9
2022-08-02T01:03:07.439Z,15.9
2022-08-02T01:04:10.284Z,15.9
2022-08-02T01:05:13.763Z,15.9
2022-08-02T01:06:16.689Z,15.9
2022-08-02T01:07:19.327Z,15.9
2022-08-02T01:08:32.456Z,15.9
2022-08-02T01:09:35.586Z,15.9
2022-08-02T01:10:37.929Z,15.9
2022-08-02T01:11:40.434Z,15.9
2022-08-02T01:12:43.345Z,15.9
2022-08-02T01:13:46.529Z,15.9
2022-08-02T01:14:49.653Z,15.9
2022-08-02T01:15:52.883Z,16
2022-08-02T01:16:56.019Z,16
2022-08-02T01:17:58.924Z,15.9
2022-08-02T01:19:01.615Z,16
2022-08-02T01:20:06.177Z,15.9
2022-08-02T01:21:09.084Z,16
2022-08-02T01:22:13.122Z,16
2022-08-02T01:23:16.499Z,15.9
2022-08-02T01:24:19.616Z,16
2022-08-02T01:25:22.506Z,16
2022-08-02T01:26:25.346Z,15.9
2022-08-02T01:27:27.963Z,15.9
2022-08-02T01:28:30.870Z,15.9
2022-08-02T01:29:33.999Z,15.9
2022-08-02T01:30:36.847Z,15.9
2022-08-02T01:31:39.962Z,16
2022-08-02T01:32:42.629Z,15.9
2022-08-02T01:33:45.179Z,15.9
2022-08-02T01:34:47.739Z,15.9
2022-08-02T01:35:52.033Z,15.9
2022-08-02T01:36:54.934Z,15.9
2022-08-02T01:37:57.625Z,15.9
2022-08-02T01:39:00.254Z,15.9
2022-08-02T01:40:02.556Z,15.9
2022-08-02T01:41:04.614Z,15.9
2022-08-02T01:42:08.213Z,15.9
2022-08-02T01:43:13.059Z,15.9
2022-08-02T01:44:16.189Z,15.8
2022-08-02T01:45:29.849Z,15.9
2022-08-02T01:46:32.759Z,15.9
2022-08-02T01:47:35.947Z,15.9
2022-08-02T01:48:38.916Z,15.9
2022-08-02T01:49:41.805Z,15.9
2022-08-02T01:50:44.693Z,15.9
2022-08-02T01:51:47.600Z,15.9
2022-08-02T01:52:54.814Z,15.9
2022-08-02T01:53:57.936Z,15.9
2022-08-02T01:55:00.011Z,15.9
2022-08-02T01:56:02.445Z,15.9
2022-08-02T01:57:05.018Z,15.9
2022-08-02T01:58:07.317Z,15.9
2022-08-02T01:59:10.149Z,15.9
2022-08-02T02:00:12.766Z,15.9
2022-08-02T02:01:19.488Z,16
2022-08-02T02:02:22.950Z,15.9
2022-08-02T02:03:27.452Z,15.9
2022-08-02T02:04:30.087Z,16
2022-08-02T02:05:35.251Z,16
2022-08-02T02:06:38.436Z,16
2022-08-02T02:07:41.892Z,16
2022-08-02T02:08:44.471Z,16
2022-08-02T02:09:51.695Z,16
2022-08-02T02:10:54.866Z,16
2022-08-02T02:12:15.107Z,16
2022-08-02T02:13:19.781Z,16
2022-08-02T02:14:36.081Z,16
2022-08-02T02:15:42.120Z,16
2022-08-02T02:16:45.082Z,16
2022-08-02T02:18:14.435Z,16
2022-08-02T02:19:23.308Z,16
2022-08-02T02:20:26.498Z,16
2022-08-02T02:21:32.277Z,16
2022-08-02T02:22:43.685Z,16
2022-08-02T02:23:51.654Z,16
2022-08-02T02:24:56.271Z,16
2022-08-02T02:26:04.459Z,16
2022-08-02T02:27:12.040Z,16
2022-08-02T02:28:14.658Z,16
2022-08-02T02:29:16.394Z,16
2022-08-02T02:30:19.570Z,16
2022-08-02T02:31:22.484Z,16
2022-08-02T02:32:24.904Z,16
2022-08-02T02:33:30.555Z,16
2022-08-02T02:34:33.669Z,16
2022-08-02T02:35:36.492Z,16
2022-08-02T02:36:39.930Z,16
2022-08-02T02:37:42.312Z,16
2022-08-02T02:38:44.629Z,15.9
2022-08-02T02:39:47.501Z,15.9
2022-08-02T02:40:49.825Z,15.9
2022-08-02T02:41:52.478Z,15.9
2022-08-02T02:42:55.593Z,15.9
2022-08-02T02:43:58.786Z,15.9
2022-08-02T02:45:01.346Z,15.9
2022-08-02T02:46:04.800Z,15.9
2022-08-02T02:47:07.126Z,15.9
2022-08-02T02:48:09.121Z,15.9
2022-08-02T02:49:12.086Z,15.8
2022-08-02T02:50:15.603Z,15.8
2022-08-02T02:51:19.066Z,15.8
2022-08-02T02:52:22.047Z,15.8
2022-08-02T02:53:24.327Z,15.8
2022-08-02T02:54:36.011Z,15.8
2022-08-02T02:55:38.572Z,15.8
2022-08-02T02:56:40.720Z,15.8
2022-08-02T02:57:43.351Z,15.8
2022-08-02T02:58:46.246Z,15.8
2022-08-02T02:59:50.579Z,15.8
2022-08-02T03:00:53.345Z,15.7
2022-08-02T03:02:08.840Z,15.7
2022-08-02T03:03:13.529Z,15.7
2022-08-02T03:04:20.777Z,15.7
2022-08-02T03:05:23.630Z,15.6
2022-08-02T03:06:25.943Z,15.6
2022-08-02T03:07:28.554Z,15.6
2022-08-02T03:08:31.376Z,15.6
2022-08-02T03:09:34.356Z,15.6
2022-08-02T03:10:37.548Z,15.6
2022-08-02T03:11:40.453Z,15.6
2022-08-02T03:12:42.464Z,15.6
2022-08-02T03:13:44.827Z,15.6
2022-08-02T03:14:50.036Z,15.5
2022-08-02T03:15:52.670Z,15.5
2022-08-02T03:16:56.131Z,15.5
2022-08-02T03:17:58.756Z,15.5
2022-08-02T03:19:01.654Z,15.5
2022-08-02T03:20:04.571Z,15.5
2022-08-02T03:21:07.523Z,15.4
2022-08-02T03:22:11.337Z,15.4
2022-08-02T03:23:15.823Z,15.4
2022-08-02T03:24:28.813Z,15.4
2022-08-02T03:25:31.045Z,15.3
2022-08-02T03:26:34.002Z,15.3
2022-08-02T03:27:36.622Z,15.3
2022-08-02T03:28:39.674Z,15.3
2022-08-02T03:29:42.294Z,15.3
2022-08-02T03:30:45.475Z,15.3
2022-08-02T03:31:47.761Z,15.3
2022-08-02T03:32:50.163Z,15.3
2022-08-02T03:33:53.358Z,15.2
2022-08-02T03:34:56.868Z,15.2
2022-08-02T03:36:01.885Z,15.2
2022-08-02T03:37:05.000Z,15.2
2022-08-02T03:38:07.626Z,15.2
2022-08-02T03:39:10.269Z,15.2
2022-08-02T03:40:12.006Z,15.1
2022-08-02T03:41:14.924Z,15.1
2022-08-02T03:42:17.040Z,15.1
2022-08-02T03:43:20.149Z,15.1
2022-08-02T03:44:22.509Z,15.1
2022-08-02T03:45:25.411Z,15.1
2022-08-02T03:46:28.290Z,15
2022-08-02T03:47:31.133Z,15
2022-08-02T03:48:35.899Z,15
2022-08-02T03:49:39.009Z,15
2022-08-02T03:50:42.588Z,15
2022-08-02T03:51:44.946Z,15
2022-08-02T03:52:47.585Z,15
2022-08-02T03:53:49.930Z,15
2022-08-02T03:54:52.507Z,15
2022-08-02T03:55:56.980Z,15
2022-08-02T03:56:59.612Z,14.9
2022-08-02T03:58:02.175Z,14.9
2022-08-02T03:59:05.630Z,14.9
2022-08-02T04:00:08.242Z,14.9
2022-08-02T04:01:11.362Z,14.9
2022-08-02T04:02:15.188Z,14.9
2022-08-02T04:03:20.537Z,14.9
2022-08-02T04:04:22.907Z,14.9
2022-08-02T04:05:25.806Z,14.9
2022-08-02T04:06:29.259Z,14.9
2022-08-02T04:08:39.108Z,14.9
2022-08-02T04:09:43.674Z,14.9
2022-08-02T04:10:46.295Z,14.9
2022-08-02T04:11:48.968Z,14.9
2022-08-02T04:12:52.164Z,14.9
2022-08-02T04:13:57.872Z,14.9
2022-08-02T04:15:01.319Z,14.9
2022-08-02T04:16:04.243Z,15
2022-08-02T04:17:06.820Z,15
2022-08-02T04:18:10.003Z,15
2022-08-02T04:19:16.224Z,15
2022-08-02T04:20:19.732Z,15
2022-08-02T04:21:22.425Z,14.9
2022-08-02T04:22:25.621Z,15
2022-08-02T04:23:32.016Z,15
2022-08-02T04:24:39.483Z,15
2022-08-02T04:25:42.894Z,15
2022-08-02T04:26:50.847Z,15
2022-08-02T04:28:29.084Z,15
2022-08-02T04:29:31.111Z,15
2022-08-02T04:30:33.691Z,15
2022-08-02T04:31:37.118Z,15
2022-08-02T04:32:39.480Z,15.1
2022-08-02T04:33:42.383Z,15.1
2022-08-02T04:35:20.096Z,15.1
2022-08-02T04:36:32.548Z,15.1
2022-08-02T04:37:34.925Z,15.1
2022-08-02T04:38:38.074Z,15.1
2022-08-02T04:39:40.481Z,15.1
2022-08-02T04:40:43.658Z,15.1
2022-08-02T04:41:46.498Z,15.1
2022-08-02T04:42:48.506Z,15.2
2022-08-02T04:43:51.580Z,15.2
2022-08-02T04:44:53.935Z,15.1
2022-08-02T04:45:57.055Z,15.2
2022-08-02T04:47:07.438Z,15.2
2022-08-02T04:48:10.269Z,15.2
2022-08-02T04:49:13.922Z,15.2
2022-08-02T04:50:16.800Z,15.2
2022-08-02T04:51:19.415Z,15.2
2022-08-02T04:52:21.827Z,15.2
2022-08-02T04:53:24.714Z,15.2
2022-08-02T04:54:27.109Z,15.2
2022-08-02T04:55:30.308Z,15.2
2022-08-02T04:56:32.693Z,15.2
2022-08-02T04:57:35.609Z,15.2
2022-08-02T04:58:41.692Z,15.2
2022-08-02T04:59:44.391Z,15.3
2022-08-02T05:00:47.524Z,15.3
2022-08-02T05:01:50.423Z,15.3
2022-08-02T05:02:53.605Z,15.4
2022-08-02T05:03:56.570Z,15.4
2022-08-02T05:04:59.764Z,15.4
2022-08-02T05:06:02.553Z,15.4
2022-08-02T05:07:21.090Z,15.4
2022-08-02T05:08:23.996Z,15.4
2022-08-02T05:09:26.972Z,15.4
2022-08-02T05:10:29.886Z,15.5
2022-08-02T05:11:37.920Z,15.5
2022-08-02T05:12:40.553Z,15.5
2022-08-02T05:13:59.736Z,15.5
2022-08-02T05:15:02.317Z,15.5
2022-08-02T05:16:05.241Z,15.6
2022-08-02T05:17:08.141Z,15.6
2022-08-02T05:18:12.016Z,15.6
2022-08-02T05:19:16.198Z,15.6
2022-08-02T05:20:18.743Z,15.6
2022-08-02T05:21:21.369Z,15.7
2022-08-02T05:22:25.039Z,15.7
2022-08-02T05:23:28.769Z,15.7
2022-08-02T05:24:30.904Z,15.7
2022-08-02T05:25:33.471Z,15.7
2022-08-02T05:26:36.174Z,15.7
2022-08-02T05:27:37.979Z,15.8
2022-08-02T05:28:41.201Z,15.8
2022-08-02T05:29:57.978Z,15.8
2022-08-02T05:31:01.430Z,15.8
2022-08-02T05:32:04.954Z,15.8
2022-08-02T05:33:08.200Z,15.9
2022-08-02T05:34:13.109Z,15.9
2022-08-02T05:35:15.237Z,15.9
2022-08-02T05:36:17.897Z,15.9
2022-08-02T05:37:24.302Z,16
2022-08-02T05:38:38.277Z,16
2022-08-02T05:39:57.178Z,16.1
2022-08-02T05:41:00.300Z,16.1
2022-08-02T05:42:03.530Z,16.1
2022-08-02T05:43:05.549Z,16.2
2022-08-02T05:44:08.446Z,16.3
2022-08-02T05:45:10.803Z,16.3
2022-08-02T05:46:13.695Z,16.3
2022-08-02T05:47:16.374Z,16.4
2022-08-02T05:48:18.996Z,16.4
2022-08-02T05:49:22.242Z,16.5
2022-08-02T05:50:26.015Z,16.5
2022-08-02T05:51:28.307Z,16.6
2022-08-02T05:52:30.940Z,16.6
2022-08-02T05:53:33.562Z,16.7
2022-08-02T05:54:40.204Z,16.7
2022-08-02T05:55:42.805Z,16.8
2022-08-02T05:56:44.857Z,16.8
2022-08-02T05:57:47.249Z,16.9
2022-08-02T05:58:50.372Z,16.9
2022-08-02T05:59:55.104Z,17
2022-08-02T06:00:57.462Z,17
2022-08-02T06:02:00.940Z,17.1
2022-08-02T06:03:03.895Z,17.1
2022-08-02T06:04:07.075Z,17.2
2022-08-02T06:05:09.173Z,17.2
2022-08-02T06:06:11.795Z,17.2
2022-08-02T06:07:14.708Z,17.3
2022-08-02T06:08:17.382Z,17.3
2022-08-02T06:09:27.756Z,17.3
2022-08-02T06:10:30.002Z,17.3
2022-08-02T06:11:32.857Z,17.4
2022-08-02T06:12:35.769Z,17.4
2022-08-02T06:13:38.204Z,17.4
2022-08-02T06:14:41.385Z,17.4
2022-08-02T06:15:54.474Z,17.4
2022-08-02T06:16:57.594Z,17.5
2022-08-02T06:18:01.632Z,17.5
2022-08-02T06:19:03.969Z,17.5
2022-08-02T06:20:06.951Z,17.6
2022-08-02T06:22:42.521Z,17.6
2022-08-02T06:24:00.139Z,17.6
2022-08-02T06:25:03.383Z,17.7
2022-08-02T06:26:06.912Z,17.8
2022-08-02T06:27:09.834Z,17.8
2022-08-02T06:28:12.521Z,17.8
2022-08-02T06:29:15.719Z,17.9
2022-08-02T06:30:18.076Z,17.9
2022-08-02T06:31:20.420Z,18
2022-08-02T06:32:23.332Z,18
2022-08-02T06:33:26.177Z,18
2022-08-02T06:34:28.480Z,18.1
2022-08-02T06:35:31.097Z,18.1
2022-08-02T06:36:34.227Z,18.1
2022-08-02T06:37:37.183Z,18.2
2022-08-02T06:38:39.259Z,18.2
2022-08-02T06:39:41.877Z,18.3
2022-08-02T06:40:44.441Z,18.3
2022-08-02T06:41:47.928Z,18.3
2022-08-02T06:42:51.051Z,18.4
2022-08-02T06:43:53.956Z,18.4
2022-08-02T06:44:59.226Z,18.4
2022-08-02T06:47:13.959Z,18.5
2022-08-02T06:48:17.123Z,18.5
2022-08-02T06:49:20.107Z,18.6
2022-08-02T06:50:23.251Z,18.6
2022-08-02T06:51:25.945Z,18.6
2022-08-02T06:52:31.053Z,18.7
2022-08-02T06:53:34.282Z,18.7
2022-08-02T06:54:37.468Z,18.7
2022-08-02T06:55:44.981Z,18.7
2022-08-02T06:56:48.973Z,18.8
2022-08-02T06:57:54.537Z,18.8
2022-08-02T06:58:56.886Z,18.9
2022-08-02T06:59:59.465Z,18.9
2022-08-02T07:01:02.184Z,18.9
2022-08-02T07:02:05.512Z,19
2022-08-02T07:03:08.085Z,19
2022-08-02T07:04:11.341Z,19
2022-08-02T07:05:14.003Z,19
2022-08-02T07:06:16.942Z,19.1
2022-08-02T07:07:20.439Z,19.1
2022-08-02T07:08:23.345Z,19.1
2022-08-02T07:09:26.263Z,19.1
2022-08-02T07:10:28.825Z,19.2
2022-08-02T07:11:31.257Z,19.2
2022-08-02T07:12:34.189Z,19.2
2022-08-02T07:13:40.468Z,19.2
2022-08-02T07:14:42.707Z,19.2
2022-08-02T07:15:50.189Z,19.3
2022-08-02T07:16:53.160Z,19.3
2022-08-02T07:17:55.724Z,19.3
2022-08-02T07:18:58.135Z,19.3
2022-08-02T07:20:00.745Z,19.3
2022-08-02T07:21:03.675Z,19.4
2022-08-02T07:22:06.771Z,19.4
2022-08-02T07:23:11.630Z,19.4
2022-08-02T07:24:14.310Z,19.4
2022-08-02T07:25:16.948Z,19.5
2022-08-02T07:26:20.134Z,19.5
2022-08-02T07:27:22.767Z,19.5
2022-08-02T07:28:26.557Z,19.5
2022-08-02T07:29:47.518Z,19.6
2022-08-02T07:30:50.144Z,19.6
2022-08-02T07:31:53.137Z,19.6
2022-08-02T07:32:55.502Z,19.6
2022-08-02T07:33:57.638Z,19.7
2022-08-02T07:35:07.739Z,19.7
2022-08-02T07:36:23.630Z,19.7
2022-08-02T07:38:02.840Z,19.8
2022-08-02T07:39:10.957Z,19.8
2022-08-02T07:40:21.453Z,19.9
2022-08-02T07:41:24.914Z,19.9
2022-08-02T07:42:27.688Z,20
2022-08-02T07:43:30.585Z,20
2022-08-02T07:44:33.262Z,20.1
2022-08-02T07:46:00.847Z,20.1
2022-08-02T07:47:03.668Z,20.1
2022-08-02T07:48:06.520Z,20.2
2022-08-02T07:49:09.303Z,20.2
2022-08-02T07:50:12.489Z,20.2
2022-08-02T07:51:18.314Z,20.3
2022-08-02T07:52:21.279Z,20.3
2022-08-02T07:54:04.008Z,20.3
2022-08-02T07:55:07.452Z,20.4
2022-08-02T07:56:10.101Z,20.4
2022-08-02T07:57:12.787Z,20.4
2022-08-02T07:58:14.865Z,20.4
2022-08-02T07:59:17.570Z,20.4
2022-08-02T08:00:20.081Z,20.4
2022-08-02T08:01:22.937Z,20.4
2022-08-02T08:02:25.091Z,20.4
2022-08-02T08:03:28.008Z,20.4
2022-08-02T08:04:30.079Z,20.5
2022-08-02T08:05:32.945Z,20.5
2022-08-02T08:06:35.589Z,20.5
2022-08-02T08:07:37.944Z,20.5
2022-08-02T08:08:41.366Z,20.5
2022-08-02T08:09:44.336Z,20.5
2022-08-02T08:10:46.710Z,20.6
2022-08-02T08:11:49.735Z,20.6
2022-08-02T08:12:52.931Z,20.6
2022-08-02T08:13:55.837Z,20.6
2022-08-02T08:14:58.073Z,20.7
2022-08-02T08:16:00.725Z,20.7
2022-08-02T08:17:03.350Z,20.7
2022-08-02T08:18:05.364Z,20.7
2022-08-02T08:19:08.044Z,20.8
2022-08-02T08:20:16.371Z,20.8
2022-08-02T08:21:18.718Z,20.8
2022-08-02T08:22:21.675Z,20.8
2022-08-02T08:23:24.890Z,20.9
2022-08-02T08:24:27.522Z,20.9
2022-08-02T08:25:30.167Z,20.9
2022-08-02T08:26:44.051Z,20.9
2022-08-02T08:27:46.689Z,20.9
2022-08-02T08:28:49.391Z,20.9
2022-08-02T08:29:52.579Z,21
2022-08-02T08:30:55.702Z,21
2022-08-02T08:31:58.063Z,21
2022-08-02T08:33:00.927Z,21
2022-08-02T08:34:03.554Z,21.1
2022-08-02T08:35:06.459Z,21.1
2022-08-02T08:36:09.090Z,21.2
2022-08-02T08:37:19.374Z,21.2
2022-08-02T08:38:26.347Z,21.3
2022-08-02T08:39:30.952Z,21.3
2022-08-02T08:40:34.160Z,21.3
2022-08-02T08:41:37.148Z,21.3
2022-08-02T08:42:40.337Z,21.3
2022-08-02T08:43:42.964Z,21.3
2022-08-02T08:44:46.155Z,21.3
2022-08-02T08:45:56.754Z,21.3
2022-08-02T08:46:59.107Z,21.3
2022-08-02T08:48:02.029Z,21.3
2022-08-02T08:49:05.081Z,21.4
2022-08-02T08:50:24.716Z,21.4
2022-08-02T08:51:27.769Z,21.4
2022-08-02T08:52:34.076Z,21.4
2022-08-02T08:53:37.791Z,21.4
2022-08-02T08:54:40.465Z,21.5
2022-08-02T08:55:43.571Z,21.5
2022-08-02T08:56:46.380Z,21.5
2022-08-02T08:57:49.070Z,21.6
2022-08-02T08:58:51.981Z,21.7
2022-08-02T08:59:53.829Z,21.7
2022-08-02T09:00:56.110Z,21.7
2022-08-02T09:02:24.809Z,21.7
2022-08-02T09:03:34.712Z,21.8
2022-08-02T09:04:37.278Z,21.8
2022-08-02T09:05:40.263Z,21.8
2022-08-02T09:06:43.451Z,21.9
2022-08-02T09:07:46.091Z,22
2022-08-02T09:08:48.443Z,22
2022-08-02T09:09:50.811Z,22
2022-08-02T09:10:54.267Z,22
2022-08-02T09:11:57.222Z,22
2022-08-02T09:12:59.846Z,22.1
2022-08-02T09:14:02.214Z,22.1
2022-08-02T09:15:05.106Z,22.1
2022-08-02T09:16:15.349Z,22.2
2022-08-02T09:17:18.196Z,22.2
2022-08-02T09:18:23.760Z,22.3
2022-08-02T09:19:26.606Z,22.4
2022-08-02T09:20:31.608Z,22.4
2022-08-02T09:21:34.460Z,22.5
2022-08-02T09:22:37.084Z,22.5
2022-08-02T09:23:39.444Z,22.6
2022-08-02T09:24:42.288Z,22.6
2022-08-02T09:26:07.095Z,22.7
2022-08-02T09:27:10.273Z,22.8
2022-08-02T09:28:13.189Z,22.9
2022-08-02T09:29:15.543Z,22.9
2022-08-02T09:30:18.999Z,22.9
2022-08-02T09:31:21.145Z,23
2022-08-02T09:32:23.511Z,23.1
2022-08-02T09:33:26.131Z,23.2
2022-08-02T09:34:28.419Z,23.2
2022-08-02T09:36:08.698Z,23.3
2022-08-02T09:37:11.934Z,23.3
2022-08-02T09:38:16.851Z,23.4
2022-08-02T09:39:19.148Z,23.5
2022-08-02T09:40:22.052Z,23.5
2022-08-02T09:41:24.484Z,23.5
2022-08-02T09:42:32.010Z,23.5
2022-08-02T09:43:33.883Z,23.6
2022-08-02T09:44:36.518Z,23.6
2022-08-02T09:45:39.375Z,23.6
2022-08-02T09:46:42.078Z,23.6
2022-08-02T09:47:45.261Z,23.7
2022-08-02T09:48:53.472Z,23.7
2022-08-02T09:49:58.700Z,23.8
2022-08-02T09:51:01.684Z,23.8
2022-08-02T09:52:04.787Z,23.9
2022-08-02T09:53:07.695Z,24
2022-08-02T09:54:10.772Z,24
2022-08-02T09:55:13.631Z,24.1
2022-08-02T09:56:36.584Z,24.1
2022-08-02T09:57:39.926Z,24.2
2022-08-02T09:58:42.840Z,24.2
2022-08-02T09:59:46.016Z,24.3
2022-08-02T10:00:56.251Z,24.3
2022-08-02T10:02:04.862Z,24.4
2022-08-02T10:03:37.853Z,24.4
2022-08-02T10:04:54.746Z,24.5
2022-08-02T10:06:03.903Z,24.5
2022-08-02T10:07:07.390Z,24.6
2022-08-02T10:08:10.311Z,24.6
2022-08-02T10:09:12.958Z,24.7
2022-08-02T10:10:15.656Z,24.7
2022-08-02T10:11:19.120Z,24.8
2022-08-02T10:12:22.092Z,24.8
2022-08-02T10:13:24.848Z,24.9
2022-08-02T10:14:26.647Z,25
2022-08-02T10:15:28.662Z,25
2022-08-02T10:16:31.559Z,25.1
2022-08-02T10:17:33.957Z,25.2
2022-08-02T10:18:42.318Z,25.2
2022-08-02T10:20:05.699Z,25.3
2022-08-02T10:21:07.935Z,25.3
2022-08-02T10:22:12.493Z,25.3
2022-08-02T10:23:17.191Z,25.3
2022-08-02T10:24:20.020Z,25.4
2022-08-02T10:25:22.659Z,25.4
2022-08-02T10:26:25.293Z,25.4
2022-08-02T10:28:04.576Z,25.5
2022-08-02T10:29:09.259Z,25.5
2022-08-02T10:30:11.988Z,25.6
2022-08-02T10:31:14.009Z,25.6
2022-08-02T10:32:17.030Z,25.7
2022-08-02T10:33:19.935Z,25.8
2022-08-02T10:34:22.780Z,25.8
2022-08-02T10:35:33.995Z,25.9
2022-08-02T10:36:37.218Z,25.9
2022-08-02T10:37:40.104Z,25.9
2022-08-02T10:38:42.892Z,25.9
2022-08-02T10:39:51.374Z,25.9
2022-08-02T10:40:54.782Z,26
2022-08-02T10:41:59.551Z,26.1
2022-08-02T10:43:03.563Z,26.2
2022-08-02T10:44:06.256Z,26.3
2022-08-02T10:45:28.285Z,26.4
2022-08-02T10:46:30.860Z,26.5
2022-08-02T10:47:34.358Z,26.6
2022-08-02T10:48:37.563Z,26.6
2022-08-02T10:49:41.515Z,26.7
2022-08-02T10:50:46.223Z,26.7
2022-08-02T10:51:48.687Z,26.8
2022-08-02T10:52:52.401Z,26.9
2022-08-02T10:53:55.295Z,26.9
2022-08-02T10:54:58.327Z,26.9
2022-08-02T10:56:01.583Z,26.9
2022-08-02T10:57:03.967Z,27
2022-08-02T10:58:06.360Z,27
2022-08-02T10:59:08.776Z,27.1
2022-08-02T11:00:11.887Z,27.1
2022-08-02T11:01:22.270Z,27.1
2022-08-02T11:02:25.712Z,27.2
2022-08-02T11:03:28.271Z,27.2
2022-08-02T11:04:30.902Z,27.3
2022-08-02T11:05:44.419Z,27.3
2022-08-02T11:06:46.723Z,27.3
2022-08-02T11:07:50.669Z,27.4
2022-08-02T11:08:53.342Z,27.4
2022-08-02T11:09:55.912Z,27.4
2022-08-02T11:10:58.321Z,27.4
2022-08-02T11:12:00.968Z,27.5
2022-08-02T11:13:04.170Z,27.5
2022-08-02T11:14:07.139Z,27.5
2022-08-02T11:15:10.258Z,27.5
2022-08-02T11:16:13.270Z,27.6
2022-08-02T11:17:17.120Z,27.6
2022-08-02T11:18:20.024Z,27.7
2022-08-02T11:19:22.383Z,27.7
2022-08-02T11:20:24.481Z,27.8
2022-08-02T11:21:26.636Z,27.9
2022-08-02T11:22:28.984Z,28
2022-08-02T11:23:46.443Z,28.1
2022-08-02T11:24:49.224Z,28.1
2022-08-02T11:26:12.429Z,28.3
2022-08-02T11:27:15.030Z,28.4
2022-08-02T11:28:19.015Z,28.5
2022-08-02T11:29:27.699Z,28.5
2022-08-02T11:30:30.890Z,28.6
2022-08-02T11:31:33.569Z,28.6
2022-08-02T11:32:36.398Z,28.6
2022-08-02T11:33:39.847Z,28.7
2022-08-02T11:34:42.766Z,28.7
2022-08-02T11:35:46.792Z,28.7
2022-08-02T11:36:49.489Z,28.8
2022-08-02T11:37:53.334Z,28.8
2022-08-02T11:38:55.698Z,28.9
2022-08-02T11:39:58.877Z,28.9
2022-08-02T11:41:10.898Z,29
2022-08-02T11:42:15.418Z,29.1
2022-08-02T11:43:18.091Z,29.2
2022-08-02T11:44:24.206Z,29.3
2022-08-02T11:45:31.331Z,29.3
2022-08-02T11:46:39.231Z,29.4
2022-08-02T11:47:41.300Z,29.5
2022-08-02T11:48:44.787Z,29.5
2022-08-02T11:49:47.024Z,29.5
2022-08-02T11:50:50.217Z,29.5
2022-08-02T11:51:55.089Z,29.6
2022-08-02T11:52:58.085Z,29.6
2022-08-02T11:54:00.451Z,29.6
2022-08-02T11:55:03.633Z,29.6
2022-08-02T11:56:06.281Z,29.7
2022-08-02T11:57:09.475Z,29.8
2022-08-02T11:58:12.095Z,29.8
2022-08-02T11:59:15.701Z,29.9
2022-08-02T12:00:18.666Z,29.9
2022-08-02T12:01:23.240Z,29.9
2022-08-02T12:02:29.450Z,30
2022-08-02T12:03:32.688Z,30.1
2022-08-02T12:04:36.533Z,30.1
2022-08-02T12:06:17.254Z,30.1
2022-08-02T12:07:36.798Z,30.1
2022-08-02T12:08:55.833Z,30.2
2022-08-02T12:10:02.715Z,30.2
2022-08-02T12:11:05.366Z,30.2
2022-08-02T12:12:07.717Z,30.2
2022-08-02T12:13:10.863Z,30.2
2022-08-02T12:14:14.044Z,30.3
2022-08-02T12:15:17.518Z,30.3
2022-08-02T12:16:21.068Z,30.3
2022-08-02T12:17:23.912Z,30.4
2022-08-02T12:18:26.476Z,30.5
2022-08-02T12:19:29.706Z,30.5
2022-08-02T12:20:32.001Z,30.5
2022-08-02T12:21:35.137Z,30.5
2022-08-02T12:22:42.793Z,30.6
2022-08-02T12:24:01.776Z,30.6
2022-08-02T12:25:04.621Z,30.7
2022-08-02T12:26:07.265Z,30.8
2022-08-02T12:27:09.908Z,30.9
2022-08-02T12:28:18.515Z,30.9
2022-08-02T12:30:00.435Z,31
2022-08-02T12:31:03.845Z,31
2022-08-02T12:32:06.454Z,31.1
2022-08-02T12:33:14.041Z,31.1
2022-08-02T12:34:16.966Z,31.2
2022-08-02T12:35:27.865Z,31.2
2022-08-02T12:36:31.022Z,31.3
2022-08-02T12:37:33.882Z,31.3
2022-08-02T12:38:36.517Z,31.4
2022-08-02T12:39:38.872Z,31.4
2022-08-02T12:40:41.823Z,31.4
2022-08-02T12:41:55.821Z,31.4
2022-08-02T12:42:58.936Z,31.4
2022-08-02T12:44:01.842Z,31.4
2022-08-02T12:45:04.206Z,31.4
2022-08-02T12:46:07.403Z,31.3
2022-08-02T12:47:10.309Z,31.3
2022-08-02T12:48:12.952Z,31.2
2022-08-02T12:49:19.814Z,31.2
2022-08-02T12:50:23.026Z,31.1
2022-08-02T12:52:03.544Z,31
2022-08-02T12:53:09.026Z,31
2022-08-02T12:54:18.634Z,31
2022-08-02T12:56:04.454Z,31
2022-08-02T12:57:07.638Z,30.9
2022-08-02T12:58:10.884Z,30.9
2022-08-02T12:59:13.721Z,30.8
2022-08-02T13:00:16.124Z,30.7
2022-08-02T13:01:19.711Z,30.7
2022-08-02T13:02:23.488Z,30.7
2022-08-02T13:04:16.902Z,30.7
2022-08-02T13:05:19.698Z,30.7
2022-08-02T13:06:52.028Z,30.7
2022-08-02T13:07:54.599Z,30.7
2022-08-02T13:08:57.220Z,30.6
2022-08-02T13:10:04.513Z,30.7
2022-08-02T13:11:07.663Z,30.7
2022-08-02T13:12:11.686Z,30.7
2022-08-02T13:13:15.900Z,30.7
2022-08-02T13:14:18.477Z,30.7
2022-08-02T13:15:51.816Z,30.7
2022-08-02T13:16:54.666Z,30.7
2022-08-02T13:17:57.392Z,30.7
2022-08-02T13:19:00.707Z,30.7
2022-08-02T13:20:05.670Z,30.6
2022-08-02T13:22:03.524Z,30.6
2022-08-02T13:23:22.672Z,30.6
2022-08-02T13:24:57.845Z,30.5
2022-08-02T13:26:00.365Z,30.5
2022-08-02T13:27:09.673Z,30.5
2022-08-02T13:28:12.743Z,30.5
2022-08-02T13:29:15.083Z,30.5
2022-08-02T13:30:18.026Z,30.5
2022-08-02T13:31:37.314Z,30.5
2022-08-02T13:32:40.993Z,30.5
2022-08-02T13:33:43.338Z,30.6
2022-08-02T13:34:46.803Z,30.5
2022-08-02T13:35:49.729Z,30.5
2022-08-02T13:36:52.307Z,30.5
2022-08-02T13:37:55.474Z,30.5
2022-08-02T13:38:58.168Z,30.5
2022-08-02T13:40:23.392Z,30.5
2022-08-02T13:41:26.210Z,30.5
2022-08-02T13:42:29.110Z,30.5
2022-08-02T13:44:09.111Z,30.5
2022-08-02T13:45:15.072Z,30.5
2022-08-02T13:46:30.242Z,30.4
2022-08-02T13:48:10.726Z,30.5
2022-08-02T13:49:53.884Z,30.4
2022-08-02T13:50:59.152Z,30.5
2022-08-02T13:52:01.551Z,30.5
2022-08-02T13:53:04.214Z,30.5
2022-08-02T13:54:07.458Z,30.6
2022-08-02T13:55:13.620Z,30.7
2022-08-02T13:56:17.168Z,30.7
2022-08-02T13:57:19.599Z,30.8
2022-08-02T13:58:22.511Z,30.9
2022-08-02T13:59:59.968Z,30.9
2022-08-02T14:01:04.749Z,31
2022-08-02T14:02:07.692Z,31
2022-08-02T14:03:13.041Z,31
2022-08-02T14:04:16.289Z,31
2022-08-02T14:05:49.020Z,31
2022-08-02T14:06:51.344Z,31
2022-08-02T14:07:54.545Z,31
2022-08-02T14:08:57.219Z,31
2022-08-02T14:10:00.186Z,31
2022-08-02T14:11:03.293Z,31
2022-08-02T14:12:05.570Z,31
2022-08-02T14:13:08.129Z,31
2022-08-02T14:14:18.026Z,30.9
2022-08-02T14:15:20.318Z,30.9
2022-08-02T14:16:34.003Z,30.9
2022-08-02T14:17:37.205Z,31
2022-08-02T14:18:39.824Z,31
2022-08-02T14:19:41.911Z,31.1
2022-08-02T14:20:44.759Z,31.1
2022-08-02T14:21:49.276Z,31.2
2022-08-02T14:22:51.986Z,31.3
2022-08-02T14:23:54.883Z,31.3
2022-08-02T14:25:09.562Z,31.3
2022-08-02T14:26:28.552Z,31.3
2022-08-02T14:27:40.129Z,31.4
2022-08-02T14:28:43.229Z,31.4
2022-08-02T14:29:45.609Z,31.4
2022-08-02T14:30:47.620Z,31.5
2022-08-02T14:31:49.970Z,31.5
2022-08-02T14:32:52.880Z,31.5
2022-08-02T14:33:55.792Z,31.5
2022-08-02T14:34:58.701Z,31.5
2022-08-02T14:36:01.625Z,31.4
2022-08-02T14:37:06.973Z,31.4
2022-08-02T14:38:09.808Z,31.4
2022-08-02T14:39:12.169Z,31.4
2022-08-02T14:40:32.192Z,31.4
2022-08-02T14:42:01.516Z,31.4